sensor_id;sensor_type;location;lat;lon;timestamp;P1;durP1;ratioP1;P2;durP2;ratioP2
77324;SDS011;66387;53.440;10.390;2024-01-30T00:00:03;6.47;;;5.17;;
77324;SDS011;66387;53.440;10.390;2024-01-30T00:02:29;6.90;;;5.25;;
77324;SDS011;66387;53.440;10.390;2024-01-30T00:04:54;8.23;;;6.00;;
77324;SDS011;66387;53.440;10.390;2024-01-30T00:07:20;7.07;;;4.97;;
77324;SDS011;66387;53.440;10.390;2024-01-30T00:09:46;7.17;;;4.30;;
77324;SDS011;66387;53.440;10.390;2024-01-30T00:12:13;6.32;;;5.10;;
77324;SDS011;66387;53.440;10.390;2024-01-30T00:14:38;8.40;;;4.97;;
77324;SDS011;66387;53.440;10.390;2024-01-30T00:17:03;7.50;;;5.00;;
77324;SDS011;66387;53.440;10.390;2024-01-30T00:19:29;7.50;;;5.00;;
77324;SDS011;66387;53.440;10.390;2024-01-30T00:21:54;7.70;;;5.13;;
77324;SDS011;66387;53.440;10.390;2024-01-30T00:24:19;6.90;;;4.70;;
77324;SDS011;66387;53.440;10.390;2024-01-30T00:26:45;8.33;;;5.73;;
77324;SDS011;66387;53.440;10.390;2024-01-30T00:29:10;6.97;;;4.97;;
77324;SDS011;66387;53.440;10.390;2024-01-30T00:31:35;9.98;;;5.55;;
77324;SDS011;66387;53.440;10.390;2024-01-30T00:34:01;8.93;;;5.13;;
77324;SDS011;66387;53.440;10.390;2024-01-30T00:36:26;8.63;;;5.10;;
77324;SDS011;66387;53.440;10.390;2024-01-30T00:38:55;8.40;;;4.65;;
77324;SDS011;66387;53.440;10.390;2024-01-30T00:41:20;5.60;;;4.70;;
77324;SDS011;66387;53.440;10.390;2024-01-30T00:43:45;6.00;;;4.90;;
77324;SDS011;66387;53.440;10.390;2024-01-30T00:46:11;9.73;;;5.50;;
77324;SDS011;66387;53.440;10.390;2024-01-30T00:48:36;7.67;;;6.10;;
77324;SDS011;66387;53.440;10.390;2024-01-30T00:51:01;6.70;;;4.90;;
77324;SDS011;66387;53.440;10.390;2024-01-30T00:53:27;7.28;;;5.05;;
77324;SDS011;66387;53.440;10.390;2024-01-30T00:55:52;7.37;;;5.27;;
77324;SDS011;66387;53.440;10.390;2024-01-30T00:58:17;10.20;;;5.78;;
77324;SDS011;66387;53.440;10.390;2024-01-30T01:00:44;7.40;;;5.68;;
77324;SDS011;66387;53.440;10.390;2024-01-30T01:03:09;6.85;;;5.05;;
77324;SDS011;66387;53.440;10.390;2024-01-30T01:05:35;7.35;;;5.32;;
77324;SDS011;66387;53.440;10.390;2024-01-30T01:08:00;11.50;;;6.93;;
77324;SDS011;66387;53.440;10.390;2024-01-30T01:10:26;8.60;;;6.03;;
77324;SDS011;66387;53.440;10.390;2024-01-30T01:12:52;7.80;;;5.10;;
77324;SDS011;66387;53.440;10.390;2024-01-30T01:15:17;9.40;;;6.13;;
77324;SDS011;66387;53.440;10.390;2024-01-30T01:17:42;7.13;;;5.77;;
77324;SDS011;66387;53.440;10.390;2024-01-30T01:20:08;6.90;;;5.43;;
77324;SDS011;66387;53.440;10.390;2024-01-30T01:22:35;9.02;;;5.53;;
77324;SDS011;66387;53.440;10.390;2024-01-30T01:25:01;6.87;;;4.97;;
77324;SDS011;66387;53.440;10.390;2024-01-30T01:27:26;8.15;;;6.10;;
77324;SDS011;66387;53.440;10.390;2024-01-30T01:29:52;9.15;;;5.20;;
77324;SDS011;66387;53.440;10.390;2024-01-30T01:32:17;7.10;;;5.35;;
77324;SDS011;66387;53.440;10.390;2024-01-30T01:34:43;7.95;;;6.00;;
77324;SDS011;66387;53.440;10.390;2024-01-30T01:37:08;10.07;;;6.30;;
77324;SDS011;66387;53.440;10.390;2024-01-30T01:39:34;8.45;;;5.65;;
77324;SDS011;66387;53.440;10.390;2024-01-30T01:41:59;8.73;;;5.30;;
77324;SDS011;66387;53.440;10.390;2024-01-30T01:44:24;9.17;;;6.00;;
77324;SDS011;66387;53.440;10.390;2024-01-30T01:46:50;8.27;;;6.50;;
77324;SDS011;66387;53.440;10.390;2024-01-30T01:49:16;9.02;;;6.22;;
77324;SDS011;66387;53.440;10.390;2024-01-30T01:51:41;6.93;;;5.25;;
77324;SDS011;66387;53.440;10.390;2024-01-30T01:56:35;9.15;;;5.93;;
77324;SDS011;66387;53.440;10.390;2024-01-30T01:59:04;10.25;;;6.55;;
77324;SDS011;66387;53.440;10.390;2024-01-30T02:01:32;10.63;;;6.15;;
77324;SDS011;66387;53.440;10.390;2024-01-30T02:03:59;9.13;;;5.63;;
77324;SDS011;66387;53.440;10.390;2024-01-30T02:06:25;7.72;;;6.00;;
77324;SDS011;66387;53.440;10.390;2024-01-30T02:08:51;9.25;;;6.60;;
77324;SDS011;66387;53.440;10.390;2024-01-30T02:11:16;11.53;;;6.53;;
77324;SDS011;66387;53.440;10.390;2024-01-30T02:13:42;8.52;;;6.20;;
77324;SDS011;66387;53.440;10.390;2024-01-30T02:16:07;9.48;;;6.35;;
77324;SDS011;66387;53.440;10.390;2024-01-30T02:18:32;8.40;;;5.80;;
77324;SDS011;66387;53.440;10.390;2024-01-30T02:20:58;7.95;;;5.93;;
77324;SDS011;66387;53.440;10.390;2024-01-30T02:23:26;9.93;;;6.00;;
77324;SDS011;66387;53.440;10.390;2024-01-30T02:25:52;8.65;;;6.25;;
77324;SDS011;66387;53.440;10.390;2024-01-30T02:28:18;8.52;;;6.38;;
77324;SDS011;66387;53.440;10.390;2024-01-30T02:30:43;9.02;;;5.90;;
77324;SDS011;66387;53.440;10.390;2024-01-30T02:33:09;10.23;;;6.43;;
77324;SDS011;66387;53.440;10.390;2024-01-30T02:35:34;10.47;;;7.10;;
77324;SDS011;66387;53.440;10.390;2024-01-30T02:38:00;10.30;;;7.32;;
77324;SDS011;66387;53.440;10.390;2024-01-30T02:40:25;9.50;;;6.35;;
77324;SDS011;66387;53.440;10.390;2024-01-30T02:42:50;8.50;;;6.43;;
77324;SDS011;66387;53.440;10.390;2024-01-30T02:45:16;10.77;;;6.95;;
77324;SDS011;66387;53.440;10.390;2024-01-30T02:47:45;9.50;;;6.05;;
77324;SDS011;66387;53.440;10.390;2024-01-30T02:50:10;10.18;;;6.95;;
77324;SDS011;66387;53.440;10.390;2024-01-30T02:52:36;11.17;;;6.83;;
77324;SDS011;66387;53.440;10.390;2024-01-30T02:55:01;9.13;;;6.73;;
77324;SDS011;66387;53.440;10.390;2024-01-30T02:57:27;8.30;;;6.85;;
77324;SDS011;66387;53.440;10.390;2024-01-30T02:59:52;11.15;;;7.25;;
77324;SDS011;66387;53.440;10.390;2024-01-30T03:02:17;8.73;;;7.17;;
77324;SDS011;66387;53.440;10.390;2024-01-30T03:04:43;9.00;;;6.60;;
77324;SDS011;66387;53.440;10.390;2024-01-30T03:07:08;8.98;;;6.43;;
77324;SDS011;66387;53.440;10.390;2024-01-30T03:09:33;9.32;;;6.45;;
77324;SDS011;66387;53.440;10.390;2024-01-30T03:11:59;8.43;;;6.67;;
77324;SDS011;66387;53.440;10.390;2024-01-30T03:14:24;10.07;;;6.70;;
77324;SDS011;66387;53.440;10.390;2024-01-30T03:16:49;7.97;;;7.17;;
77324;SDS011;66387;53.440;10.390;2024-01-30T03:19:15;10.20;;;6.45;;
77324;SDS011;66387;53.440;10.390;2024-01-30T03:21:40;11.82;;;7.28;;
77324;SDS011;66387;53.440;10.390;2024-01-30T03:24:06;10.55;;;6.60;;
77324;SDS011;66387;53.440;10.390;2024-01-30T03:26:31;8.77;;;7.18;;
77324;SDS011;66387;53.440;10.390;2024-01-30T03:28:56;9.00;;;5.93;;
77324;SDS011;66387;53.440;10.390;2024-01-30T03:31:22;10.00;;;7.00;;
77324;SDS011;66387;53.440;10.390;2024-01-30T03:33:47;7.83;;;6.43;;
77324;SDS011;66387;53.440;10.390;2024-01-30T03:36:12;9.60;;;6.53;;
77324;SDS011;66387;53.440;10.390;2024-01-30T03:38:38;10.68;;;6.53;;
77324;SDS011;66387;53.440;10.390;2024-01-30T03:41:03;11.70;;;7.00;;
77324;SDS011;66387;53.440;10.390;2024-01-30T03:43:32;14.52;;;7.75;;
77324;SDS011;66387;53.440;10.390;2024-01-30T03:45:57;11.80;;;6.70;;
77324;SDS011;66387;53.440;10.390;2024-01-30T03:48:22;10.17;;;6.57;;
77324;SDS011;66387;53.440;10.390;2024-01-30T03:50:48;9.18;;;7.60;;
77324;SDS011;66387;53.440;10.390;2024-01-30T03:53:13;11.88;;;6.32;;
77324;SDS011;66387;53.440;10.390;2024-01-30T03:55:38;11.27;;;6.43;;
77324;SDS011;66387;53.440;10.390;2024-01-30T03:58:04;11.93;;;6.97;;
77324;SDS011;66387;53.440;10.390;2024-01-30T04:00:29;8.50;;;7.07;;
77324;SDS011;66387;53.440;10.390;2024-01-30T04:02:54;9.33;;;7.30;;
77324;SDS011;66387;53.440;10.390;2024-01-30T04:05:20;10.10;;;7.75;;
77324;SDS011;66387;53.440;10.390;2024-01-30T04:07:45;9.90;;;6.57;;
77324;SDS011;66387;53.440;10.390;2024-01-30T04:10:10;12.30;;;6.97;;
77324;SDS011;66387;53.440;10.390;2024-01-30T04:12:36;10.80;;;6.77;;
77324;SDS011;66387;53.440;10.390;2024-01-30T04:15:01;10.97;;;6.53;;
77324;SDS011;66387;53.440;10.390;2024-01-30T04:17:27;10.07;;;7.35;;
77324;SDS011;66387;53.440;10.390;2024-01-30T04:19:53;10.75;;;6.90;;
77324;SDS011;66387;53.440;10.390;2024-01-30T04:22:19;8.43;;;6.43;;
77324;SDS011;66387;53.440;10.390;2024-01-30T04:24:44;12.13;;;7.20;;
77324;SDS011;66387;53.440;10.390;2024-01-30T04:27:09;12.67;;;7.90;;
77324;SDS011;66387;53.440;10.390;2024-01-30T04:29:35;8.37;;;7.23;;
77324;SDS011;66387;53.440;10.390;2024-01-30T04:32:00;10.38;;;7.53;;
77324;SDS011;66387;53.440;10.390;2024-01-30T04:34:26;9.63;;;7.57;;
77324;SDS011;66387;53.440;10.390;2024-01-30T04:36:51;10.77;;;8.13;;
77324;SDS011;66387;53.440;10.390;2024-01-30T04:39:16;13.03;;;6.60;;
77324;SDS011;66387;53.440;10.390;2024-01-30T04:41:42;9.65;;;7.25;;
77324;SDS011;66387;53.440;10.390;2024-01-30T04:44:07;11.17;;;7.70;;
77324;SDS011;66387;53.440;10.390;2024-01-30T04:46:32;12.37;;;7.97;;
77324;SDS011;66387;53.440;10.390;2024-01-30T04:48:59;14.13;;;9.05;;
77324;SDS011;66387;53.440;10.390;2024-01-30T04:51:24;9.18;;;6.95;;
77324;SDS011;66387;53.440;10.390;2024-01-30T04:53:50;8.83;;;6.70;;
77324;SDS011;66387;53.440;10.390;2024-01-30T04:56:15;11.80;;;7.93;;
77324;SDS011;66387;53.440;10.390;2024-01-30T04:58:40;9.20;;;6.85;;
77324;SDS011;66387;53.440;10.390;2024-01-30T05:01:05;10.27;;;6.70;;
77324;SDS011;66387;53.440;10.390;2024-01-30T05:03:33;12.48;;;7.60;;
77324;SDS011;66387;53.440;10.390;2024-01-30T05:05:59;12.25;;;7.03;;
77324;SDS011;66387;53.440;10.390;2024-01-30T05:08:24;10.40;;;7.13;;
77324;SDS011;66387;53.440;10.390;2024-01-30T05:10:50;10.97;;;7.83;;
77324;SDS011;66387;53.440;10.390;2024-01-30T05:13:15;13.03;;;7.50;;
77324;SDS011;66387;53.440;10.390;2024-01-30T05:15:40;10.00;;;7.10;;
77324;SDS011;66387;53.440;10.390;2024-01-30T05:18:05;10.70;;;7.53;;
77324;SDS011;66387;53.440;10.390;2024-01-30T05:20:31;11.70;;;8.60;;
77324;SDS011;66387;53.440;10.390;2024-01-30T05:22:56;9.73;;;6.87;;
77324;SDS011;66387;53.440;10.390;2024-01-30T05:25:21;8.37;;;7.50;;
77324;SDS011;66387;53.440;10.390;2024-01-30T05:27:46;10.40;;;7.73;;
77324;SDS011;66387;53.440;10.390;2024-01-30T05:30:12;10.20;;;7.53;;
77324;SDS011;66387;53.440;10.390;2024-01-30T05:32:37;13.80;;;8.15;;
77324;SDS011;66387;53.440;10.390;2024-01-30T05:35:03;11.48;;;7.80;;
77324;SDS011;66387;53.440;10.390;2024-01-30T05:37:29;11.25;;;7.57;;
77324;SDS011;66387;53.440;10.390;2024-01-30T05:39:54;10.77;;;7.43;;
77324;SDS011;66387;53.440;10.390;2024-01-30T05:42:19;10.00;;;7.80;;
77324;SDS011;66387;53.440;10.390;2024-01-30T05:44:44;15.10;;;8.73;;
77324;SDS011;66387;53.440;10.390;2024-01-30T05:47:09;11.63;;;7.27;;
77324;SDS011;66387;53.440;10.390;2024-01-30T05:49:35;12.87;;;8.47;;
77324;SDS011;66387;53.440;10.390;2024-01-30T05:52:02;11.48;;;7.85;;
77324;SDS011;66387;53.440;10.390;2024-01-30T05:54:28;9.95;;;7.80;;
77324;SDS011;66387;53.440;10.390;2024-01-30T05:56:54;10.45;;;8.52;;
77324;SDS011;66387;53.440;10.390;2024-01-30T05:59:19;13.90;;;8.23;;
77324;SDS011;66387;53.440;10.390;2024-01-30T06:01:45;11.17;;;7.53;;
77324;SDS011;66387;53.440;10.390;2024-01-30T06:04:11;12.60;;;8.65;;
77324;SDS011;66387;53.440;10.390;2024-01-30T06:06:36;13.85;;;8.75;;
77324;SDS011;66387;53.440;10.390;2024-01-30T06:09:02;11.47;;;7.60;;
77324;SDS011;66387;53.440;10.390;2024-01-30T06:11:27;12.98;;;8.35;;
77324;SDS011;66387;53.440;10.390;2024-01-30T06:13:52;12.57;;;8.10;;
77324;SDS011;66387;53.440;10.390;2024-01-30T06:16:18;12.80;;;7.90;;
77324;SDS011;66387;53.440;10.390;2024-01-30T06:18:44;13.23;;;8.10;;
77324;SDS011;66387;53.440;10.390;2024-01-30T06:21:10;10.17;;;7.17;;
77324;SDS011;66387;53.440;10.390;2024-01-30T06:23:35;13.87;;;8.23;;
77324;SDS011;66387;53.440;10.390;2024-01-30T06:26:00;12.17;;;7.80;;
77324;SDS011;66387;53.440;10.390;2024-01-30T06:28:25;10.80;;;8.13;;
77324;SDS011;66387;53.440;10.390;2024-01-30T06:30:50;11.30;;;7.57;;
77324;SDS011;66387;53.440;10.390;2024-01-30T06:33:16;11.20;;;8.03;;
77324;SDS011;66387;53.440;10.390;2024-01-30T06:35:41;14.30;;;7.90;;
77324;SDS011;66387;53.440;10.390;2024-01-30T06:38:06;12.07;;;7.63;;
77324;SDS011;66387;53.440;10.390;2024-01-30T06:40:32;11.00;;;8.53;;
77324;SDS011;66387;53.440;10.390;2024-01-30T06:42:57;12.57;;;8.40;;
77324;SDS011;66387;53.440;10.390;2024-01-30T06:45:22;13.80;;;9.53;;
77324;SDS011;66387;53.440;10.390;2024-01-30T06:47:47;12.67;;;9.17;;
77324;SDS011;66387;53.440;10.390;2024-01-30T06:50:13;13.27;;;8.67;;
77324;SDS011;66387;53.440;10.390;2024-01-30T06:52:38;13.00;;;8.35;;
77324;SDS011;66387;53.440;10.390;2024-01-30T06:55:03;11.57;;;8.77;;
77324;SDS011;66387;53.440;10.390;2024-01-30T06:57:29;13.25;;;9.15;;
77324;SDS011;66387;53.440;10.390;2024-01-30T06:59:55;14.52;;;9.35;;
77324;SDS011;66387;53.440;10.390;2024-01-30T07:02:20;15.50;;;9.63;;
77324;SDS011;66387;53.440;10.390;2024-01-30T07:04:46;13.68;;;9.35;;
77324;SDS011;66387;53.440;10.390;2024-01-30T07:07:11;13.60;;;9.18;;
77324;SDS011;66387;53.440;10.390;2024-01-30T07:09:38;15.63;;;9.23;;
77324;SDS011;66387;53.440;10.390;2024-01-30T07:12:04;17.00;;;8.32;;
77324;SDS011;66387;53.440;10.390;2024-01-30T07:14:29;11.88;;;8.90;;
77324;SDS011;66387;53.440;10.390;2024-01-30T07:16:54;15.77;;;9.10;;
77324;SDS011;66387;53.440;10.390;2024-01-30T07:19:20;13.37;;;9.17;;
77324;SDS011;66387;53.440;10.390;2024-01-30T07:21:45;12.63;;;8.57;;
77324;SDS011;66387;53.440;10.390;2024-01-30T07:24:11;14.90;;;8.70;;
77324;SDS011;66387;53.440;10.390;2024-01-30T07:26:36;14.03;;;8.27;;
77324;SDS011;66387;53.440;10.390;2024-01-30T07:29:01;14.03;;;8.40;;
77324;SDS011;66387;53.440;10.390;2024-01-30T07:31:27;12.95;;;8.50;;
77324;SDS011;66387;53.440;10.390;2024-01-30T07:33:52;9.70;;;7.20;;
77324;SDS011;66387;53.440;10.390;2024-01-30T07:36:18;9.77;;;7.88;;
77324;SDS011;66387;53.440;10.390;2024-01-30T07:38:43;11.07;;;7.60;;
77324;SDS011;66387;53.440;10.390;2024-01-30T07:41:08;18.33;;;9.73;;
77324;SDS011;66387;53.440;10.390;2024-01-30T07:43:34;12.73;;;9.57;;
77324;SDS011;66387;53.440;10.390;2024-01-30T07:45:59;15.50;;;9.30;;
77324;SDS011;66387;53.440;10.390;2024-01-30T07:48:25;16.27;;;8.38;;
77324;SDS011;66387;53.440;10.390;2024-01-30T07:50:51;12.27;;;8.20;;
77324;SDS011;66387;53.440;10.390;2024-01-30T07:53:16;12.30;;;8.87;;
77324;SDS011;66387;53.440;10.390;2024-01-30T07:55:41;13.20;;;9.20;;
77324;SDS011;66387;53.440;10.390;2024-01-30T07:58:09;12.30;;;8.35;;
77324;SDS011;66387;53.440;10.390;2024-01-30T08:00:35;11.23;;;9.05;;
77324;SDS011;66387;53.440;10.390;2024-01-30T08:03:00;14.87;;;9.00;;
77324;SDS011;66387;53.440;10.390;2024-01-30T08:05:25;11.70;;;8.37;;
77324;SDS011;66387;53.440;10.390;2024-01-30T08:07:50;14.63;;;9.03;;
77324;SDS011;66387;53.440;10.390;2024-01-30T08:10:16;14.82;;;8.90;;
77324;SDS011;66387;53.440;10.390;2024-01-30T08:12:43;13.55;;;8.38;;
77324;SDS011;66387;53.440;10.390;2024-01-30T08:15:09;12.40;;;9.40;;
77324;SDS011;66387;53.440;10.390;2024-01-30T08:17:34;14.52;;;9.45;;
77324;SDS011;66387;53.440;10.390;2024-01-30T08:20:00;13.10;;;8.50;;
77324;SDS011;66387;53.440;10.390;2024-01-30T08:22:25;14.23;;;8.43;;
77324;SDS011;66387;53.440;10.390;2024-01-30T08:24:50;13.47;;;8.13;;
77324;SDS011;66387;53.440;10.390;2024-01-30T08:27:16;12.40;;;7.95;;
77324;SDS011;66387;53.440;10.390;2024-01-30T08:29:41;13.77;;;8.95;;
77324;SDS011;66387;53.440;10.390;2024-01-30T08:32:07;15.70;;;9.67;;
77324;SDS011;66387;53.440;10.390;2024-01-30T08:34:32;13.55;;;9.63;;
77324;SDS011;66387;53.440;10.390;2024-01-30T08:36:58;12.32;;;8.68;;
77324;SDS011;66387;53.440;10.390;2024-01-30T08:39:23;13.52;;;9.15;;
77324;SDS011;66387;53.440;10.390;2024-01-30T08:41:49;13.57;;;8.23;;
77324;SDS011;66387;53.440;10.390;2024-01-30T08:44:14;13.53;;;9.53;;
77324;SDS011;66387;53.440;10.390;2024-01-30T08:46:39;14.13;;;9.17;;
77324;SDS011;66387;53.440;10.390;2024-01-30T08:49:04;14.73;;;9.43;;
77324;SDS011;66387;53.440;10.390;2024-01-30T08:51:30;12.97;;;8.47;;
77324;SDS011;66387;53.440;10.390;2024-01-30T08:53:55;13.20;;;9.35;;
77324;SDS011;66387;53.440;10.390;2024-01-30T08:56:20;15.07;;;9.07;;
77324;SDS011;66387;53.440;10.390;2024-01-30T08:58:46;14.05;;;10.23;;
77324;SDS011;66387;53.440;10.390;2024-01-30T09:01:11;13.70;;;8.33;;
77324;SDS011;66387;53.440;10.390;2024-01-30T09:03:36;14.17;;;9.73;;
77324;SDS011;66387;53.440;10.390;2024-01-30T09:06:07;14.38;;;9.40;;
77324;SDS011;66387;53.440;10.390;2024-01-30T09:08:33;17.92;;;9.57;;
77324;SDS011;66387;53.440;10.390;2024-01-30T09:10:58;13.00;;;9.23;;
77324;SDS011;66387;53.440;10.390;2024-01-30T09:13:24;14.70;;;8.57;;
77324;SDS011;66387;53.440;10.390;2024-01-30T09:15:49;12.17;;;8.77;;
77324;SDS011;66387;53.440;10.390;2024-01-30T09:18:14;12.20;;;8.40;;
77324;SDS011;66387;53.440;10.390;2024-01-30T09:20:39;14.90;;;8.87;;
77324;SDS011;66387;53.440;10.390;2024-01-30T09:23:05;11.90;;;8.80;;
77324;SDS011;66387;53.440;10.390;2024-01-30T09:25:30;13.63;;;8.30;;
77324;SDS011;66387;53.440;10.390;2024-01-30T09:27:55;11.43;;;8.27;;
77324;SDS011;66387;53.440;10.390;2024-01-30T09:30:20;13.43;;;8.10;;
77324;SDS011;66387;53.440;10.390;2024-01-30T09:32:46;13.18;;;8.13;;
77324;SDS011;66387;53.440;10.390;2024-01-30T09:35:11;11.90;;;9.13;;
77324;SDS011;66387;53.440;10.390;2024-01-30T09:37:36;12.95;;;8.68;;
77324;SDS011;66387;53.440;10.390;2024-01-30T09:40:02;11.47;;;8.27;;
77324;SDS011;66387;53.440;10.390;2024-01-30T09:42:34;16.88;;;8.60;;
77324;SDS011;66387;53.440;10.390;2024-01-30T09:45:01;17.02;;;8.55;;
77324;SDS011;66387;53.440;10.390;2024-01-30T09:47:28;12.63;;;8.82;;
77324;SDS011;66387;53.440;10.390;2024-01-30T09:50:06;12.07;;;8.23;;
77324;SDS011;66387;53.440;10.390;2024-01-30T09:52:33;12.13;;;8.10;;
77324;SDS011;66387;53.440;10.390;2024-01-30T09:54:59;11.60;;;7.97;;
77324;SDS011;66387;53.440;10.390;2024-01-30T09:57:25;11.68;;;7.32;;
77324;SDS011;66387;53.440;10.390;2024-01-30T09:59:51;10.07;;;7.18;;
77324;SDS011;66387;53.440;10.390;2024-01-30T10:02:17;10.88;;;7.85;;
77324;SDS011;66387;53.440;10.390;2024-01-30T10:04:43;12.50;;;7.97;;
77324;SDS011;66387;53.440;10.390;2024-01-30T10:07:09;13.05;;;8.55;;
77324;SDS011;66387;53.440;10.390;2024-01-30T10:09:36;11.45;;;8.07;;
77324;SDS011;66387;53.440;10.390;2024-01-30T10:12:02;13.15;;;7.57;;
77324;SDS011;66387;53.440;10.390;2024-01-30T10:14:28;10.93;;;6.93;;
77324;SDS011;66387;53.440;10.390;2024-01-30T10:16:54;13.00;;;6.95;;
77324;SDS011;66387;53.440;10.390;2024-01-30T10:19:20;11.02;;;7.57;;
77324;SDS011;66387;53.440;10.390;2024-01-30T10:21:46;11.77;;;8.30;;
77324;SDS011;66387;53.440;10.390;2024-01-30T10:24:11;11.35;;;8.32;;
77324;SDS011;66387;53.440;10.390;2024-01-30T10:26:38;12.90;;;7.28;;
77324;SDS011;66387;53.440;10.390;2024-01-30T10:29:04;10.57;;;8.27;;
77324;SDS011;66387;53.440;10.390;2024-01-30T10:31:29;10.55;;;7.55;;
77324;SDS011;66387;53.440;10.390;2024-01-30T10:33:54;13.57;;;8.17;;
77324;SDS011;66387;53.440;10.390;2024-01-30T10:36:20;10.47;;;7.00;;
77324;SDS011;66387;53.440;10.390;2024-01-30T10:38:52;11.93;;;7.55;;
77324;SDS011;66387;53.440;10.390;2024-01-30T10:41:26;10.90;;;7.78;;
77324;SDS011;66387;53.440;10.390;2024-01-30T10:43:56;11.35;;;6.88;;
77324;SDS011;66387;53.440;10.390;2024-01-30T10:46:28;10.07;;;6.90;;
77324;SDS011;66387;53.440;10.390;2024-01-30T10:48:57;7.18;;;6.13;;
77324;SDS011;66387;53.440;10.390;2024-01-30T10:51:27;12.65;;;7.25;;
77324;SDS011;66387;53.440;10.390;2024-01-30T10:53:52;11.75;;;7.35;;
77324;SDS011;66387;53.440;10.390;2024-01-30T10:56:20;12.23;;;6.53;;
77324;SDS011;66387;53.440;10.390;2024-01-30T10:58:47;10.75;;;6.72;;
77324;SDS011;66387;53.440;10.390;2024-01-30T11:01:17;11.77;;;7.57;;
77324;SDS011;66387;53.440;10.390;2024-01-30T11:03:48;10.15;;;7.20;;
77324;SDS011;66387;53.440;10.390;2024-01-30T11:06:15;9.90;;;7.78;;
77324;SDS011;66387;53.440;10.390;2024-01-30T11:08:43;11.52;;;7.30;;
77324;SDS011;66387;53.440;10.390;2024-01-30T11:11:09;9.55;;;7.35;;
77324;SDS011;66387;53.440;10.390;2024-01-30T11:13:35;10.63;;;6.93;;
77324;SDS011;66387;53.440;10.390;2024-01-30T11:16:02;12.57;;;8.10;;
77324;SDS011;66387;53.440;10.390;2024-01-30T11:18:31;9.93;;;7.10;;
77324;SDS011;66387;53.440;10.390;2024-01-30T11:20:58;10.05;;;7.28;;
77324;SDS011;66387;53.440;10.390;2024-01-30T11:23:26;9.98;;;6.28;;
77324;SDS011;66387;53.440;10.390;2024-01-30T11:25:52;9.48;;;7.45;;
77324;SDS011;66387;53.440;10.390;2024-01-30T11:28:17;11.40;;;7.20;;
77324;SDS011;66387;53.440;10.390;2024-01-30T11:30:43;9.88;;;6.60;;
77324;SDS011;66387;53.440;10.390;2024-01-30T11:33:10;9.07;;;6.80;;
77324;SDS011;66387;53.440;10.390;2024-01-30T11:35:46;12.13;;;7.63;;
77324;SDS011;66387;53.440;10.390;2024-01-30T11:38:12;12.07;;;6.95;;
77324;SDS011;66387;53.440;10.390;2024-01-30T11:40:39;12.52;;;7.32;;
77324;SDS011;66387;53.440;10.390;2024-01-30T11:43:05;12.18;;;7.50;;
77324;SDS011;66387;53.440;10.390;2024-01-30T11:45:32;11.45;;;7.18;;
77324;SDS011;66387;53.440;10.390;2024-01-30T11:47:58;8.77;;;6.65;;
77324;SDS011;66387;53.440;10.390;2024-01-30T11:50:28;9.68;;;6.95;;
77324;SDS011;66387;53.440;10.390;2024-01-30T11:52:54;11.25;;;7.35;;
77324;SDS011;66387;53.440;10.390;2024-01-30T11:55:20;8.48;;;6.78;;
77324;SDS011;66387;53.440;10.390;2024-01-30T11:57:45;13.40;;;7.07;;
77324;SDS011;66387;53.440;10.390;2024-01-30T12:00:14;10.57;;;8.03;;
77324;SDS011;66387;53.440;10.390;2024-01-30T12:02:41;12.25;;;7.75;;
77324;SDS011;66387;53.440;10.390;2024-01-30T12:05:06;11.63;;;7.80;;
77324;SDS011;66387;53.440;10.390;2024-01-30T12:07:32;9.13;;;6.68;;
77324;SDS011;66387;53.440;10.390;2024-01-30T12:09:58;11.18;;;7.57;;
77324;SDS011;66387;53.440;10.390;2024-01-30T12:12:24;9.70;;;6.60;;
77324;SDS011;66387;53.440;10.390;2024-01-30T12:14:51;12.30;;;7.03;;
77324;SDS011;66387;53.440;10.390;2024-01-30T12:17:32;11.27;;;8.15;;
77324;SDS011;66387;53.440;10.390;2024-01-30T12:20:10;11.52;;;7.95;;
77324;SDS011;66387;53.440;10.390;2024-01-30T12:22:37;9.20;;;7.18;;
77324;SDS011;66387;53.440;10.390;2024-01-30T12:25:05;8.95;;;7.10;;
77324;SDS011;66387;53.440;10.390;2024-01-30T12:27:33;10.45;;;7.32;;
77324;SDS011;66387;53.440;10.390;2024-01-30T12:29:58;9.82;;;5.97;;
77324;SDS011;66387;53.440;10.390;2024-01-30T12:32:23;10.70;;;6.33;;
77324;SDS011;66387;53.440;10.390;2024-01-30T12:34:49;9.83;;;6.93;;
77324;SDS011;66387;53.440;10.390;2024-01-30T12:37:14;10.80;;;6.82;;
77324;SDS011;66387;53.440;10.390;2024-01-30T12:39:44;11.52;;;6.97;;
77324;SDS011;66387;53.440;10.390;2024-01-30T12:42:10;10.02;;;7.80;;
77324;SDS011;66387;53.440;10.390;2024-01-30T12:44:35;9.43;;;6.87;;
77324;SDS011;66387;53.440;10.390;2024-01-30T12:47:02;11.30;;;6.23;;
77324;SDS011;66387;53.440;10.390;2024-01-30T12:49:28;11.07;;;6.85;;
77324;SDS011;66387;53.440;10.390;2024-01-30T12:51:53;8.20;;;6.13;;
77324;SDS011;66387;53.440;10.390;2024-01-30T12:54:19;8.40;;;6.03;;
77324;SDS011;66387;53.440;10.390;2024-01-30T12:56:44;10.40;;;6.20;;
77324;SDS011;66387;53.440;10.390;2024-01-30T12:59:09;8.20;;;6.87;;
77324;SDS011;66387;53.440;10.390;2024-01-30T13:01:34;12.03;;;6.67;;
77324;SDS011;66387;53.440;10.390;2024-01-30T13:04:00;9.03;;;6.23;;
77324;SDS011;66387;53.440;10.390;2024-01-30T13:06:25;9.63;;;6.70;;
77324;SDS011;66387;53.440;10.390;2024-01-30T13:08:50;8.83;;;5.63;;
77324;SDS011;66387;53.440;10.390;2024-01-30T13:11:16;9.17;;;6.57;;
77324;SDS011;66387;53.440;10.390;2024-01-30T13:13:41;9.82;;;6.65;;
77324;SDS011;66387;53.440;10.390;2024-01-30T13:16:07;7.57;;;5.93;;
77324;SDS011;66387;53.440;10.390;2024-01-30T13:18:32;9.93;;;6.80;;
77324;SDS011;66387;53.440;10.390;2024-01-30T13:20:58;10.10;;;7.23;;
77324;SDS011;66387;53.440;10.390;2024-01-30T13:23:23;9.33;;;6.80;;
77324;SDS011;66387;53.440;10.390;2024-01-30T13:25:48;8.75;;;6.03;;
77324;SDS011;66387;53.440;10.390;2024-01-30T13:28:13;8.70;;;6.60;;
77324;SDS011;66387;53.440;10.390;2024-01-30T13:30:39;12.17;;;6.63;;
77324;SDS011;66387;53.440;10.390;2024-01-30T13:33:04;7.53;;;6.60;;
77324;SDS011;66387;53.440;10.390;2024-01-30T13:35:29;8.45;;;6.50;;
77324;SDS011;66387;53.440;10.390;2024-01-30T13:37:55;9.13;;;6.43;;
77324;SDS011;66387;53.440;10.390;2024-01-30T13:40:20;9.30;;;5.83;;
77324;SDS011;66387;53.440;10.390;2024-01-30T13:42:47;8.40;;;6.43;;
77324;SDS011;66387;53.440;10.390;2024-01-30T13:45:12;9.27;;;7.15;;
77324;SDS011;66387;53.440;10.390;2024-01-30T13:47:38;9.27;;;7.57;;
77324;SDS011;66387;53.440;10.390;2024-01-30T13:50:03;8.73;;;6.50;;
77324;SDS011;66387;53.440;10.390;2024-01-30T13:52:29;9.82;;;5.88;;
77324;SDS011;66387;53.440;10.390;2024-01-30T13:54:54;7.87;;;6.03;;
77324;SDS011;66387;53.440;10.390;2024-01-30T13:57:20;12.43;;;6.93;;
77324;SDS011;66387;53.440;10.390;2024-01-30T13:59:45;9.70;;;5.90;;
77324;SDS011;66387;53.440;10.390;2024-01-30T14:02:11;9.23;;;5.75;;
77324;SDS011;66387;53.440;10.390;2024-01-30T14:04:36;10.93;;;6.07;;
77324;SDS011;66387;53.440;10.390;2024-01-30T14:07:02;8.30;;;6.18;;
77324;SDS011;66387;53.440;10.390;2024-01-30T14:09:28;11.10;;;6.10;;
77324;SDS011;66387;53.440;10.390;2024-01-30T14:11:53;11.07;;;6.95;;
77324;SDS011;66387;53.440;10.390;2024-01-30T14:14:19;11.17;;;5.63;;
77324;SDS011;66387;53.440;10.390;2024-01-30T14:16:44;9.63;;;5.78;;
77324;SDS011;66387;53.440;10.390;2024-01-30T14:19:09;9.83;;;7.20;;